Time;durP1;ratioP1;P1;durP2;ratioP2;P2;SDS_P1;SDS_P2;PMS_P1;PMS_P2;Temp;Humidity;BMP_temperature;BMP_pressure;BME280_temperature;BME280_humidity;BME280_pressure;Samples;Min_cycle;Max_cycle;Signal;HPM_P1;HPM_P2
2022/10/30 00:01:46;;;;;;;9.50;6.10;;;;;;;13.51;79.12;98943.48;102326;1297;77026;-25
2022/10/30 00:04:14;;;;;;;9.40;6.10;;;;;;;13.37;79.76;98945.94;102020;1302;75202;-24
2022/10/30 00:06:41;;;;;;;14.30;6.00;;;;;;;13.23;80.34;98949.23;102163;1294;64363;-24
2022/10/30 00:09:09;;;;;;;9.00;6.20;;;;;;;13.42;79.91;98946.57;102120;1301;61932;-24
2022/10/30 00:11:36;;;;;;;11.20;6.70;;;;;;;13.63;78.86;98942.31;102029;1302;76245;-24
2022/10/30 00:14:03;;;;;;;10.50;6.10;;;;;;;13.64;78.64;98948.20;102302;1297;75811;-24
2022/10/30 00:16:30;;;;;;;12.80;6.60;;;;;;;13.39;79.47;98947.19;102160;1295;75489;-25
2022/10/30 00:18:57;;;;;;;10.20;6.00;;;;;;;13.18;80.27;98940.04;102059;1296;62891;-24
2022/10/30 00:21:24;;;;;;;12.10;6.40;;;;;;;13.38;79.80;98943.75;102169;1301;62607;-25
2022/10/30 00:23:52;;;;;;;9.20;5.90;;;;;;;13.53;79.23;98945.86;102289;1295;76283;-25
2022/10/30 00:26:20;;;;;;;10.60;6.30;;;;;;;13.51;78.94;98950.11;101946;1301;76779;-25
2022/10/30 00:28:52;;;;;;;11.40;6.30;;;;;;;13.27;79.59;98947.21;101980;1298;74214;-24
2022/10/30 00:31:19;;;;;;;9.60;5.00;;;;;;;13.02;80.77;98943.98;101980;1303;62636;-26
2022/10/30 00:33:50;;;;;;;11.10;6.50;;;;;;;13.04;81.13;98941.55;102119;1302;62872;-25
2022/10/30 00:36:18;;;;;;;16.90;6.60;;;;;;;13.30;80.06;98939.48;101135;1301;1319017;-25
2022/10/30 00:38:45;;;;;;;9.60;5.80;;;;;;;13.28;79.75;98933.77;102059;1304;76588;-25
2022/10/30 00:41:17;;;;;;;10.70;6.70;;;;;;;13.14;80.22;98931.59;102105;1297;75242;-23
2022/10/30 00:43:45;;;;;;;7.70;5.10;;;;;;;12.95;80.96;98927.07;102036;1303;63126;-24
2022/10/30 00:46:24;;;;;;;13.00;5.90;;;;;;;13.09;80.92;98920.90;102193;1302;62607;-24
2022/10/30 00:48:55;;;;;;;9.10;5.80;;;;;;;13.37;79.42;98924.38;102129;1301;76307;-24
2022/10/30 00:51:22;;;;;;;8.10;5.90;;;;;;;13.25;79.60;98923.92;101912;1303;76595;-24
2022/10/30 00:53:49;;;;;;;12.20;6.30;;;;;;;13.09;80.22;98919.77;101908;1305;74187;-25
2022/10/30 00:56:18;;;;;;;11.20;5.70;;;;;;;12.85;81.49;98913.73;102308;1300;62689;-24
2022/10/30 00:58:51;;;;;;;11.50;6.10;;;;;;;13.00;81.00;98913.14;102013;1305;61871;-24
2022/10/30 01:01:20;;;;;;;;;;;;;;;13.21;79.75;98911.88;101931;1307;75159;-25
2022/10/30 01:03:47;;;;;;;13.60;6.20;;;;;;;13.09;80.02;98913.02;102087;1305;76148;-24
2022/10/30 01:06:17;;;;;;;9.80;5.80;;;;;;;12.87;80.83;98912.42;102263;1302;74994;-24
2022/10/30 01:08:44;;;;;;;8.80;5.40;;;;;;;12.64;81.96;98911.59;102198;1302;63205;-25
2022/10/30 01:11:11;;;;;;;9.80;5.50;;;;;;;12.84;81.28;98906.45;102103;1305;61800;-24
2022/10/30 01:13:40;;;;;;;10.50;5.40;;;;;;;13.08;79.75;98904.77;102271;1297;76426;-24
2022/10/30 01:16:33;;;;;;;10.80;5.80;;;;;;;12.94;80.25;98907.66;102032;1304;76875;-24
2022/10/30 01:19:28;;;;;;;14.50;6.30;;;;;;;12.68;81.08;98915.76;102254;1297;74235;-25
2022/10/30 01:22:20;;;;;;;10.10;5.40;;;;;;;12.45;82.31;98923.11;101932;1304;64440;-24
2022/10/30 01:25:06;;;;;;;11.30;5.00;;;;;;;12.84;80.87;98925.09;102012;1302;61713;-24
2022/10/30 01:28:05;;;;;;;9.70;5.30;;;;;;;12.90;80.14;98930.57;101915;1297;76386;-24
2022/10/30 01:30:39;;;;;;;9.40;5.90;;;;;;;12.65;81.19;98941.31;102168;1301;76846;-23
2022/10/30 01:33:31;;;;;;;12.50;7.00;;;;;;;12.33;82.90;98946.27;101924;1303;74210;-24
2022/10/30 01:36:21;;;;;;;12.50;6.30;;;;;;;12.19;84.27;98946.70;101935;1304;64509;-24
2022/10/30 01:39:01;;;;;;;8.40;5.30;;;;;;;12.69;82.47;98944.94;102226;1299;62880;-24
2022/10/30 01:41:29;;;;;;;10.40;6.20;;;;;;;12.82;81.73;98943.41;101931;1297;76373;-24
2022/10/30 01:44:00;;;;;;;9.30;6.70;;;;;;;12.59;82.87;98958.92;102074;1304;76886;-24
2022/10/30 01:47:10;;;;;;;13.70;7.10;;;;;;;12.29;84.54;98967.67;101907;1304;73874;-24
2022/10/30 01:49:40;;;;;;;9.00;6.50;;;;;;;12.39;85.19;98975.12;101932;1303;61796;-24
2022/10/30 01:52:38;;;;;;;12.90;7.90;;;;;;;12.59;84.03;98974.02;101951;1302;61788;-24
2022/10/30 01:55:20;;;;;;;13.50;6.40;;;;;;;12.57;84.01;98974.26;102180;1302;76142;-24
2022/10/30 01:58:01;;;;;;;13.50;7.30;;;;;;;12.57;83.85;98964.98;101941;1304;76771;-24
2022/10/30 02:00:28;;;;;;;11.60;5.90;;;;;;;12.36;85.04;98956.59;101882;1304;74908;-24
2022/10/30 02:02:55;;;;;;;7.50;5.70;;;;;;;12.72;83.73;98949.88;102211;1301;62613;-24
2022/10/30 02:05:35;;;;;;;10.90;7.30;;;;;;;12.89;82.35;98942.93;101900;1304;63016;-24
2022/10/30 02:08:02;;;;;;;12.20;6.40;;;;;;;12.79;82.48;98942.93;102076;1302;76467;-24
2022/10/30 02:10:30;;;;;;;12.30;6.40;;;;;;;12.51;83.55;98945.33;102179;1301;76804;-24
2022/10/30 02:12:57;;;;;;;12.10;6.20;;;;;;;12.40;84.04;98933.46;101897;1304;75273;-24
2022/10/30 02:15:25;;;;;;;13.80;7.50;;;;;;;12.68;82.88;98926.91;101922;1303;62902;-24
2022/10/30 02:17:53;;;;;;;13.60;7.40;;;;;;;12.83;81.93;98920.08;101915;1300;61167;-24
2022/10/30 02:20:21;;;;;;;11.40;6.30;;;;;;;12.81;81.43;98909.15;101986;1303;76385;-25
2022/10/30 02:22:48;;;;;;;10.00;6.20;;;;;;;12.60;82.34;98904.33;102004;1301;76897;-25
2022/10/30 02:25:22;;;;;;;8.80;6.20;;;;;;;12.41;83.02;98910.05;102318;1299;75042;-25
2022/10/30 02:27:49;;;;;;;9.40;6.10;;;;;;;12.67;82.26;98914.77;102079;1292;63253;-25
2022/10/30 02:30:16;;;;;;;11.20;7.10;;;;;;;12.83;81.24;98911.94;101961;1302;62676;-25
2022/10/30 02:32:43;;;;;;;10.10;6.50;;;;;;;12.72;81.33;98914.58;102178;1301;76385;-25
2022/10/30 02:35:11;;;;;;;12.90;6.50;;;;;;;12.44;82.49;98930.28;102272;1302;76814;-25
2022/10/30 02:37:38;;;;;;;11.20;5.80;;;;;;;12.26;83.51;98933.66;102108;1293;74242;-25
2022/10/30 02:40:07;;;;;;;11.00;5.70;;;;;;;12.56;82.51;98928.36;102155;1302;63013;-25
2022/10/30 02:42:34;;;;;;;13.60;6.10;;;;;;;12.80;80.92;98927.90;101932;1305;62833;-25
2022/10/30 02:45:02;;;;;;;14.50;7.40;;;;;;;12.66;81.14;98925.54;102208;1295;75396;-25
2022/10/30 02:47:29;;;;;;;11.90;6.10;;;;;;;12.43;82.03;98934.38;102363;1302;76763;-25
2022/10/30 02:49:56;;;;;;;13.90;6.30;;;;;;;12.26;83.04;98937.80;102289;1297;75371;-25
2022/10/30 02:52:25;;;;;;;10.00;6.40;;;;;;;12.47;82.68;98941.87;102250;1302;63053;-25
2022/10/30 02:54:52;;;;;;;14.00;6.40;;;;;;;12.67;81.57;98937.80;102132;1287;61104;-25
2022/10/30 02:57:19;;;;;;;10.20;5.80;;;;;;;12.69;81.28;98938.15;102158;1301;76617;-25
2022/10/30 02:59:46;;;;;;;12.30;7.10;;;;;;;12.43;82.23;98943.98;102307;1297;75698;-25
2022/10/30 03:02:13;;;;;;;15.50;5.90;;;;;;;12.23;83.56;98952.17;102038;1304;74939;-25
2022/10/30 03:04:40;;;;;;;10.50;6.30;;;;;;;12.44;82.71;98948.09;102027;1304;61862;-25
2022/10/30 03:07:10;;;;;;;15.30;5.90;;;;;;;12.65;81.36;98940.75;102344;1297;62775;-26
2022/10/30 03:09:37;;;;;;;9.70;6.40;;;;;;;12.45;82.01;98931.75;102081;1294;75337;-25
2022/10/30 03:12:04;;;;;;;12.20;6.40;;;;;;;12.37;82.33;98941.76;102270;1298;77075;-25
2022/10/30 03:14:31;;;;;;;10.40;5.50;;;;;;;12.16;83.16;98943.05;101978;1294;74007;-25
2022/10/30 03:16:59;;;;;;;9.80;5.40;;;;;;;12.43;82.14;98931.94;102045;1300;61598;-25
2022/10/30 03:19:26;;;;;;;11.90;6.60;;;;;;;12.55;81.33;98935.08;101975;1301;61590;-26
2022/10/30 03:21:53;;;;;;;13.50;6.40;;;;;;;12.46;81.47;98944.20;102209;1295;76371;-25
2022/10/30 03:24:20;;;;;;;10.60;7.40;;;;;;;12.18;82.81;98939.77;102236;1302;76738;-25
2022/10/30 03:26:48;;;;;;;9.00;6.50;;;;;;;12.06;83.15;98943.83;102230;1302;74155;-25
2022/10/30 03:29:15;;;;;;;6.70;4.80;;;;;;;12.28;82.41;98955.10;102226;1295;62582;-25
2022/10/30 03:31:42;;;;;;;17.40;7.50;;;;;;;12.31;81.90;98952.75;102103;1300;61724;-25
2022/10/30 03:34:13;;;;;;;12.50;7.20;;;;;;;12.10;82.80;98951.05;102026;1302;75073;-25
2022/10/30 03:36:40;;;;;;;8.00;6.30;;;;;;;11.87;83.63;98961.13;102233;1300;76867;-25
2022/10/30 03:39:07;;;;;;;10.30;6.50;;;;;;;11.96;83.64;98952.19;102193;1300;75120;-25
2022/10/30 03:41:35;;;;;;;15.30;7.30;;;;;;;12.09;83.22;98954.80;102304;1301;62944;-25
2022/10/30 03:44:02;;;;;;;11.20;7.30;;;;;;;12.13;82.91;98952.23;102137;1302;61923;-25
2022/10/30 03:46:30;;;;;;;10.90;7.30;;;;;;;11.97;83.52;98947.73;102225;1300;76413;-24
2022/10/30 03:49:09;;;;;;;7.70;5.70;;;;;;;11.81;84.30;98936.21;102113;1302;75583;-25
2022/10/30 03:51:37;;;;;;;13.60;7.00;;;;;;;11.84;84.91;98957.00;102119;1303;75571;-24
2022/10/30 03:54:05;;;;;;;16.30;6.70;;;;;;;12.08;83.89;98961.57;102166;1302;63018;-25
2022/10/30 03:56:32;;;;;;;10.50;6.00;;;;;;;12.18;83.09;98955.67;102111;1297;61775;-25
2022/10/30 03:58:59;;;;;;;13.20;6.60;;;;;;;11.96;84.09;98951.77;102133;1300;76403;-25
2022/10/30 04:01:26;;;;;;;12.10;6.30;;;;;;;11.87;84.53;98940.43;102278;1294;75593;-25
2022/10/30 04:03:55;;;;;;;9.20;5.70;;;;;;;12.06;84.41;98940.79;102297;1302;75225;-25
2022/10/30 04:06:23;;;;;;;11.70;6.30;;;;;;;12.24;83.28;98928.27;102314;1301;62956;-25
2022/10/30 04:08:53;;;;;;;13.50;8.60;;;;;;;12.12;83.57;98933.02;102114;1300;62986;-26
2022/10/30 04:11:22;;;;;;;13.00;6.70;;;;;;;11.86;84.45;98931.09;101907;1297;76390;-25
2022/10/30 04:13:49;;;;;;;8.40;6.20;;;;;;;11.73;85.37;98946.80;102331;1302;76868;-25
2022/10/30 04:16:16;;;;;;;9.50;6.70;;;;;;;12.14;83.42;98940.24;102042;1301;75112;-25
2022/10/30 04:18:44;;;;;;;20.20;7.40;;;;;;;12.14;83.11;98939.77;101929;1302;61202;-25
2022/10/30 04:21:11;;;;;;;10.80;6.80;;;;;;;11.92;83.86;98945.40;101987;1302;62562;-25
2022/10/30 04:23:38;;;;;;;9.70;5.70;;;;;;;11.75;84.51;98946.70;102311;1298;76491;-25
2022/10/30 04:26:05;;;;;;;13.40;6.70;;;;;;;11.81;84.75;98953.23;101983;1300;76521;-25
2022/10/30 04:28:35;;;;;;;10.20;6.90;;;;;;;12.03;83.56;98953.90;102264;1302;75133;-25
2022/10/30 04:31:02;;;;;;;17.70;7.90;;;;;;;12.00;83.59;98960.34;102214;1302;62698;-25
2022/10/30 04:33:30;;;;;;;12.40;7.40;;;;;;;11.70;84.63;98958.73;102221;1300;62704;-25
2022/10/30 04:35:58;;;;;;;10.30;5.30;;;;;;;11.69;84.66;98960.74;102246;1305;76332;-25
2022/10/30 04:38:25;;;;;;;7.60;5.30;;;;;;;11.94;83.93;98965.71;102044;1300;75706;-25
2022/10/30 04:40:52;;;;;;;12.00;7.30;;;;;;;12.00;83.28;98961.90;101968;1290;74677;-25
2022/10/30 04:43:19;;;;;;;13.90;8.60;;;;;;;11.93;83.59;98966.48;102272;1303;63192;-25
2022/10/30 04:45:49;;;;;;;13.60;7.90;;;;;;;11.70;84.47;98970.55;102328;1301;62822;-25
2022/10/30 04:48:17;;;;;;;11.10;7.40;;;;;;;11.49;85.86;98971.84;102117;1303;76359;-25
2022/10/30 04:50:45;;;;;;;16.00;7.90;;;;;;;11.70;85.11;98977.02;102131;1303;75969;-25
2022/10/30 04:53:20;;;;;;;11.40;6.70;;;;;;;11.95;83.62;98979.92;102267;1302;75114;-25
2022/10/30 04:55:52;;;;;;;16.70;7.70;;;;;;;11.88;83.83;98974.36;102312;1302;62409;-25
2022/10/30 04:58:19;;;;;;;11.50;7.80;;;;;;;11.72;84.40;98986.88;102012;1304;61979;-25
2022/10/30 05:00:51;;;;;;;11.60;7.10;;;;;;;11.54;85.37;98984.09;102285;1302;76318;-25
2022/10/30 05:03:20;;;;;;;16.50;6.80;;;;;;;11.78;84.53;98985.02;102091;1302;76050;-25
2022/10/30 05:05:48;;;;;;;13.30;7.30;;;;;;;11.83;83.19;98978.02;101913;1306;75179;-25
2022/10/30 05:08:15;;;;;;;15.90;7.00;;;;;;;12.00;83.05;98983.58;102082;1301;61212;-25
2022/10/30 05:10:42;;;;;;;16.30;7.60;;;;;;;11.83;83.60;98979.37;102181;1301;62891;-25
2022/10/30 05:13:11;;;;;;;10.10;6.50;;;;;;;11.58;83.71;98975.09;102257;1302;76436;-25
2022/10/30 05:15:38;;;;;;;11.90;6.70;;;;;;;11.92;81.78;98977.00;102078;1302;76234;-25
2022/10/30 05:18:05;;;;;;;13.10;6.60;;;;;;;11.77;82.12;98984.01;102161;1292;74306;-24
2022/10/30 05:20:32;;;;;;;11.60;6.90;;;;;;;11.85;82.10;98978.48;101990;1300;61819;-25
2022/10/30 05:22:59;;;;;;;9.90;6.10;;;;;;;11.73;82.18;98977.60;102202;1300;62863;-25
2022/10/30 05:25:26;;;;;;;9.80;5.80;;;;;;;11.75;82.48;98972.55;102198;1299;75591;-24
2022/10/30 05:28:02;;;;;;;13.10;6.30;;;;;;;12.07;81.46;98977.52;102327;1297;75734;-25
2022/10/30 05:30:32;;;;;;;11.00;5.90;;;;;;;12.05;81.17;98983.92;101900;1299;75218;-25
2022/10/30 05:33:00;;;;;;;11.20;7.10;;;;;;;11.82;82.01;98979.30;101969;1305;62728;-25
2022/10/30 05:35:28;;;;;;;12.00;6.10;;;;;;;11.79;82.52;98987.55;102008;1303;62693;-25
2022/10/30 05:37:56;;;;;;;7.60;5.10;;;;;;;11.69;82.83;98986.30;102283;1299;76430;-25
2022/10/30 05:40:24;;;;;;;8.70;5.40;;;;;;;12.09;81.43;98986.16;102051;1300;75695;-25
2022/10/30 05:42:51;;;;;;;8.60;6.10;;;;;;;12.11;80.69;98996.59;102324;1298;75218;-25
2022/10/30 05:45:19;;;;;;;11.70;5.80;;;;;;;11.88;81.39;98990.18;102115;1289;62604;-25
2022/10/30 05:48:03;;;;;;;13.60;5.70;;;;;;;11.82;80.85;98984.84;102375;1298;63347;-25
2022/10/30 05:50:33;;;;;;;10.40;5.50;;;;;;;11.64;81.35;98990.59;102144;1299;76108;-25
2022/10/30 05:53:15;;;;;;;6.40;4.60;;;;;;;11.65;81.76;98995.16;102265;1294;76869;-22
2022/10/30 05:55:42;;;;;;;8.70;4.40;;;;;;;11.95;80.59;98999.17;102133;1297;75261;-22
2022/10/30 05:58:15;;;;;;;10.20;5.50;;;;;;;11.77;80.75;99014.44;102286;1302;62631;-24
2022/10/30 06:00:43;;;;;;;9.50;5.70;;;;;;;11.71;81.13;99012.89;102310;1302;62975;-25
2022/10/30 06:03:12;;;;;;;10.10;6.00;;;;;;;11.63;81.60;99011.17;102311;1294;76387;-25
2022/10/30 06:05:43;;;;;;;11.20;5.60;;;;;;;11.61;81.96;99010.14;102330;1302;76889;-25
2022/10/30 06:08:11;;;;;;;12.60;5.80;;;;;;;11.89;80.96;99017.44;101977;1302;75326;-23
2022/10/30 06:10:38;;;;;;;11.20;5.60;;;;;;;12.11;80.41;99009.63;102133;1302;62911;-23
2022/10/30 06:13:28;;;;;;;8.10;5.70;;;;;;;12.09;80.00;99016.47;102128;1302;62827;-23
2022/10/30 06:15:59;;;;;;;9.50;6.20;;;;;;;11.82;81.01;99023.29;102287;1300;76546;-23
2022/10/30 06:18:40;;;;;;;9.60;5.60;;;;;;;11.69;81.54;99024.88;102127;1303;76762;-23
2022/10/30 06:21:10;;;;;;;8.10;5.20;;;;;;;12.14;79.98;99026.74;102321;1301;75201;-23
2022/10/30 06:23:47;;;;;;;10.20;5.80;;;;;;;12.01;80.03;99023.41;102262;1297;62866;-24
2022/10/30 06:26:46;;;;;;;10.20;5.60;;;;;;;11.87;80.83;99025.80;101733;1298;61895;-24
2022/10/30 06:29:14;;;;;;;7.50;5.00;;;;;;;11.77;81.47;99033.63;102280;1297;76383;-25
2022/10/30 06:31:42;;;;;;;8.60;4.20;;;;;;;11.73;81.46;99025.58;101936;1302;76724;-23
2022/10/30 06:34:09;;;;;;;11.00;4.80;;;;;;;12.07;79.58;99027.77;102262;1295;75377;-23
2022/10/30 06:36:38;;;;;;;8.10;5.00;;;;;;;12.12;79.11;99031.83;102130;1297;62887;-23
2022/10/30 06:39:05;;;;;;;9.90;5.70;;;;;;;12.09;79.12;99036.49;102209;1302;63204;-23
2022/10/30 06:41:40;;;;;;;11.90;5.00;;;;;;;11.77;79.76;99024.19;102069;1300;75351;-23
2022/10/30 06:44:27;;;;;;;8.80;4.90;;;;;;;11.65;80.90;99027.56;101976;1300;76824;-23
2022/10/30 06:46:54;;;;;;;8.20;4.50;;;;;;;11.77;80.46;99026.14;102310;1295;74989;-23
2022/10/30 06:49:22;;;;;;;7.60;4.90;;;;;;;12.09;79.29;99026.34;101971;1301;63235;-23
2022/10/30 06:51:50;;;;;;;8.80;4.50;;;;;;;12.02;78.83;99028.28;102294;1300;62636;-23
2022/10/30 06:54:17;;;;;;;9.70;5.10;;;;;;;11.94;79.11;99035.47;101950;1300;75288;-24
2022/10/30 06:57:04;;;;;;;10.50;4.90;;;;;;;11.57;79.85;99027.52;102241;1302;75866;-24
2022/10/30 06:59:59;;;;;;;7.50;3.90;;;;;;;11.56;80.26;99036.83;102285;1302;75261;-23
2022/10/30 07:02:59;;;;;;;9.40;3.80;;;;;;;12.09;78.81;99040.25;102132;1302;62944;-24
2022/10/30 07:05:28;;;;;;;8.20;5.00;;;;;;;12.00;78.20;99035.13;102163;1302;61839;-25
2022/10/30 07:07:56;;;;;;;12.70;5.30;;;;;;;11.92;78.69;99034.22;102097;1295;76101;-24
2022/10/30 07:10:23;;;;;;;8.50;4.30;;;;;;;11.78;79.30;99041.86;102285;1302;77200;-24
2022/10/30 07:13:16;;;;;;;6.40;3.80;;;;;;;11.56;80.11;99047.75;102110;1300;75208;-24
2022/10/30 07:15:52;;;;;;;9.90;3.90;;;;;;;12.11;78.74;99049.15;102081;1302;62758;-24
2022/10/30 07:18:22;;;;;;;9.00;4.90;;;;;;;12.35;77.05;99050.69;102215;1295;62882;-24
2022/10/30 07:20:56;;;;;;;6.40;4.70;;;;;;;12.16;77.41;99042.77;102286;1294;76467;-24
2022/10/30 07:23:25;;;;;;;9.40;4.90;;;;;;;11.79;78.39;99041.13;102072;1299;75867;-25
2022/10/30 07:25:59;;;;;;;9.30;4.10;;;;;;;11.62;79.17;99041.30;101871;1303;75181;-24
2022/10/30 07:28:34;;;;;;;7.60;3.90;;;;;;;11.53;79.17;99045.70;101934;1302;62162;-24
2022/10/30 07:31:25;;;;;;;5.80;3.20;;;;;;;11.82;77.61;99046.09;102064;1299;61629;-24
2022/10/30 07:34:08;;;;;;;5.40;3.90;;;;;;;11.89;76.73;99035.83;102248;1298;76169;-24
2022/10/30 07:36:58;;;;;;;8.10;4.30;;;;;;;11.83;77.63;99036.23;101868;1299;75705;-24
2022/10/30 07:39:42;;;;;;;7.20;4.00;;;;;;;11.78;77.40;99034.40;102152;1298;75233;-25
2022/10/30 07:42:21;;;;;;;8.10;3.40;;;;;;;11.61;77.87;99040.74;102318;1302;61933;-25
2022/10/30 07:45:07;;;;;;;6.20;3.30;;;;;;;11.76;77.11;99037.17;102331;1285;61703;-25
2022/10/30 07:48:14;;;;;;;7.80;3.10;;;;;;;11.94;74.48;99028.53;101782;1300;75526;-25
2022/10/30 07:50:46;;;;;;;10.10;3.60;;;;;;;11.78;74.95;99029.73;101683;1300;76668;-25
2022/10/30 07:53:14;;;;;;;6.90;3.40;;;;;;;11.57;75.06;99033.05;102008;1299;73289;-25
2022/10/30 07:55:41;;;;;;;6.30;3.10;;;;;;;11.59;75.26;99028.91;102132;1305;62940;-25
2022/10/30 07:58:11;;;;;;;6.90;2.60;;;;;;;11.51;75.26;99029.89;102349;1302;62872;-25
2022/10/30 08:01:11;;;;;;;7.50;3.30;;;;;;;11.40;75.56;99027.20;101897;1291;76373;-23
2022/10/30 08:03:38;;;;;;;4.30;2.50;;;;;;;11.69;74.69;99022.84;102157;1302;74548;-22
2022/10/30 08:06:20;;;;;;;8.30;3.10;;;;;;;12.03;74.62;99029.09;102315;1297;75037;-22
2022/10/30 08:08:53;;;;;;;5.50;3.10;;;;;;;12.11;74.35;99026.91;102100;1302;61681;-24
2022/10/30 08:11:25;;;;;;;6.80;3.40;;;;;;;11.98;74.52;99025.91;102368;1293;62569;-24
2022/10/30 08:13:52;;;;;;;13.20;4.20;;;;;;;11.74;74.41;99018.60;102313;1292;76500;-24
2022/10/30 08:16:20;;;;;;;5.90;3.20;;;;;;;11.53;75.10;99016.73;102272;1294;76916;-23
2022/10/30 08:18:48;;;;;;;8.30;3.40;;;;;;;11.58;74.89;99018.03;102303;1302;75335;-24
2022/10/30 08:21:17;;;;;;;9.90;3.70;;;;;;;11.76;74.87;99018.77;102319;1297;64643;-24
2022/10/30 08:23:53;;;;;;;9.50;3.50;;;;;;;12.07;73.99;99010.36;102294;1292;62569;-24
2022/10/30 08:26:21;;;;;;;6.10;3.70;;;;;;;12.14;73.39;99018.95;102243;1296;76391;-24
2022/10/30 08:28:48;;;;;;;6.60;3.50;;;;;;;12.15;73.64;99016.39;102044;1298;76698;-24
2022/10/30 08:31:15;;;;;;;5.70;3.50;;;;;;;12.06;74.04;99022.94;102123;1302;75009;-24
2022/10/30 08:34:03;;;;;;;7.10;3.40;;;;;;;11.78;74.92;99026.19;101985;1302;62830;-24
2022/10/30 08:36:49;;;;;;;7.80;3.70;;;;;;;11.79;74.30;99018.99;102310;1302;61750;-24
2022/10/30 08:39:17;;;;;;;5.40;3.80;;;;;;;11.73;74.49;99018.45;101927;1299;76130;-25
2022/10/30 08:42:05;;;;;;;6.90;2.50;;;;;;;11.89;74.28;99025.95;102128;1293;75494;-24
2022/10/30 08:44:37;;;;;;;7.70;3.10;;;;;;;12.41;72.87;99027.56;102333;1302;73202;-22
2022/10/30 08:47:23;;;;;;;6.90;3.20;;;;;;;12.61;71.06;99032.73;102323;1302;61941;-23
2022/10/30 08:49:50;;;;;;;6.80;3.40;;;;;;;12.63;71.12;99030.23;102274;1299;61831;-23
2022/10/30 08:52:20;;;;;;;7.50;3.90;;;;;;;12.80;71.45;99028.80;102357;1298;76409;-23
2022/10/30 08:54:53;;;;;;;9.20;3.10;;;;;;;12.49;71.56;99025.80;102322;1302;76603;-23
2022/10/30 08:57:22;;;;;;;6.30;3.50;;;;;;;12.74;71.27;99026.14;102313;1302;75712;-24
2022/10/30 08:59:49;;;;;;;6.60;3.20;;;;;;;12.70;71.31;99026.51;102311;1301;62773;-24
2022/10/30 09:02:46;;;;;;;5.10;2.90;;;;;;;12.79;71.25;99028.14;101518;1307;62839;-25
2022/10/30 09:05:31;;;;;;;6.90;3.80;;;;;;;13.00;71.20;99026.45;101979;1302;76401;-25
2022/10/30 09:08:22;;;;;;;11.50;3.10;;;;;;;12.90;70.39;99022.80;102175;1301;76642;-24
2022/10/30 09:11:04;;;;;;;8.30;3.30;;;;;;;12.96;70.57;99018.27;102334;1302;74135;-24
2022/10/30 09:13:31;;;;;;;4.80;2.90;;;;;;;12.95;70.42;99021.30;102122;1299;61465;-24
2022/10/30 09:16:00;;;;;;;5.40;3.00;;;;;;;12.97;69.26;99027.94;102257;1302;62646;-25
2022/10/30 09:18:28;;;;;;;6.80;2.70;;;;;;;12.78;69.57;99031.85;102042;1297;76401;-24
2022/10/30 09:20:56;;;;;;;5.60;2.90;;;;;;;12.85;70.64;99033.52;102226;1301;76761;-24
2022/10/30 09:23:23;;;;;;;5.90;2.60;;;;;;;12.97;70.34;99036.80;102157;1302;74188;-24
2022/10/30 09:25:57;;;;;;;5.90;2.40;;;;;;;13.03;69.18;99028.08;101909;1305;62826;-24
2022/10/30 09:28:43;;;;;;;5.90;3.00;;;;;;;12.91;69.09;99036.83;102293;1294;63050;-24
2022/10/30 09:31:30;;;;;;;11.20;3.20;;;;;;;13.28;68.24;99024.60;101965;1299;76374;-24
2022/10/30 09:33:57;;;;;;;5.70;2.90;;;;;;;13.22;68.81;99034.53;102079;1300;76740;-25
2022/10/30 09:36:37;;;;;;;6.60;3.00;;;;;;;13.34;68.34;99033.95;102130;1300;75225;-25
2022/10/30 09:39:04;;;;;;;4.30;2.10;;;;;;;13.21;68.63;99036.89;102105;1299;61702;-24
2022/10/30 09:42:16;;;;;;;7.60;2.50;;;;;;;12.85;68.21;99035.64;102346;1297;62613;-24
2022/10/30 09:45:00;;;;;;;9.60;2.90;;;;;;;12.81;68.87;99037.51;102084;1298;76425;-24
2022/10/30 09:48:25;;;;;;;5.80;2.50;;;;;;;12.91;68.78;99017.83;102059;1301;76615;-24
2022/10/30 09:51:04;;;;;;;3.40;2.20;;;;;;;13.17;67.89;99017.39;102341;1302;73985;-24
2022/10/30 09:54:01;;;;;;;8.40;2.90;;;;;;;12.79;68.68;99016.98;102170;1301;62896;-24
2022/10/30 09:56:44;;;;;;;8.30;2.40;;;;;;;12.64;68.94;99025.63;102281;1298;62898;-24
2022/10/30 10:00:02;;;;;;;6.80;2.80;;;;;;;12.77;69.54;99019.97;102015;1288;76553;-25
2022/10/30 10:02:33;;;;;;;6.90;3.20;;;;;;;12.62;69.73;99027.25;101887;1304;76741;-25
2022/10/30 10:05:05;;;;;;;6.20;1.90;;;;;;;12.58;70.61;99025.16;102069;1304;73911;-24
2022/10/30 10:08:07;;;;;;;7.90;2.60;;;;;;;12.93;69.67;99023.38;102023;1302;62762;-25
2022/10/30 10:10:57;;;;;;;8.70;2.80;;;;;;;13.22;67.26;99007.70;101933;1299;61739;-25
2022/10/30 10:13:31;;;;;;;6.80;2.60;;;;;;;13.29;67.43;99011.58;102178;1294;76421;-24
2022/10/30 10:16:19;;;;;;;5.20;2.20;;;;;;;13.34;67.20;99004.65;101916;1297;76503;-24
2022/10/30 10:18:52;;;;;;;6.70;2.40;;;;;;;13.52;66.60;98994.95;101948;1301;73598;-24
2022/10/30 10:21:24;;;;;;;6.70;2.40;;;;;;;13.55;65.89;98993.66;102177;1304;61453;-24
2022/10/30 10:23:54;;;;;;;5.20;2.00;;;;;;;13.60;64.89;98988.31;101913;1304;62618;-24
2022/10/30 10:26:46;;;;;;;8.50;2.50;;;;;;;13.54;64.92;98987.44;101944;1304;75519;-24
2022/10/30 10:29:35;;;;;;;4.60;2.10;;;;;;;13.61;65.16;98983.72;102049;1302;75784;-24
2022/10/30 10:32:11;;;;;;;5.30;2.80;;;;;;;13.53;65.57;98986.34;102158;1296;73631;-24
2022/10/30 10:34:51;;;;;;;4.40;2.10;;;;;;;13.49;64.50;98969.28;102294;1302;62027;-24
2022/10/30 10:37:52;;;;;;;6.40;2.20;;;;;;;13.51;64.23;98977.79;102103;1294;63332;-24
2022/10/30 10:40:45;;;;;;;6.00;2.10;;;;;;;13.76;63.93;98959.19;101965;1304;75330;-24
2022/10/30 10:43:37;;;;;;;3.60;1.60;;;;;;;14.20;63.04;98956.80;102146;1301;76726;-24
2022/10/30 10:46:40;;;;;;;5.60;2.90;;;;;;;14.15;61.37;98954.43;102242;1302;75201;-24
2022/10/30 10:49:26;;;;;;;4.30;1.80;;;;;;;14.33;61.77;98971.38;101944;1294;61904;-24
2022/10/30 10:52:01;;;;;;;4.10;1.50;;;;;;;14.30;60.81;98974.09;101968;1298;62120;-24
2022/10/30 10:54:30;;;;;;;4.90;1.90;;;;;;;14.68;60.65;98966.52;102080;1301;76211;-24
2022/10/30 10:56:58;;;;;;;2.40;1.60;;;;;;;14.44;60.71;98964.73;102252;1295;76800;-24
2022/10/30 10:59:37;;;;;;;4.20;2.10;;;;;;;14.50;60.16;98971.45;102308;1294;75252;-24
2022/10/30 11:02:04;;;;;;;6.80;2.00;;;;;;;14.56;60.04;98969.81;102044;1302;62848;-24
2022/10/30 11:04:36;;;;;;;3.10;1.80;;;;;;;14.52;59.36;98964.91;102210;1294;62066;-24
2022/10/30 11:07:22;;;;;;;6.00;2.10;;;;;;;14.51;59.60;98963.86;102038;1295;76281;-24
2022/10/30 11:09:53;;;;;;;4.70;2.20;;;;;;;14.58;60.03;98961.42;101927;1302;76737;-24
2022/10/30 11:12:24;;;;;;;9.40;2.00;;;;;;;14.76;59.98;98970.60;101965;1304;74515;-24
2022/10/30 11:14:58;;;;;;;4.70;2.00;;;;;;;15.04;60.38;98970.01;101941;1305;63237;-24
2022/10/30 11:17:31;;;;;;;3.90;1.90;;;;;;;14.78;59.51;98958.74;102251;1302;61840;-24
2022/10/30 11:20:00;;;;;;;4.80;2.30;;;;;;;14.88;59.32;98964.94;102203;1295;76410;-24
2022/10/30 11:22:32;;;;;;;5.00;2.00;;;;;;;14.32;61.49;98965.73;102149;1300;76756;-24
2022/10/30 11:25:19;;;;;;;4.50;2.10;;;;;;;14.19;62.95;98958.04;102015;1302;74127;-25
2022/10/30 11:27:58;;;;;;;5.00;1.70;;;;;;;13.92;64.37;98956.86;102318;1302;61982;-25
2022/10/30 11:30:27;;;;;;;5.80;1.90;;;;;;;13.78;62.99;98957.83;102148;1300;61828;-24
2022/10/30 11:32:56;;;;;;;3.40;2.30;;;;;;;13.75;62.06;98938.86;102126;1303;76382;-24
2022/10/30 11:35:24;;;;;;;5.10;2.00;;;;;;;13.58;62.35;98953.73;102054;1297;76739;-24
2022/10/30 11:38:10;;;;;;;7.10;1.70;;;;;;;13.85;61.58;98937.94;101999;1302;73916;-24
2022/10/30 11:40:39;;;;;;;3.60;1.50;;;;;;;14.08;60.91;98941.33;102187;1301;61794;-24
2022/10/30 11:43:07;;;;;;;6.40;1.70;;;;;;;13.98;60.30;98940.71;102327;1301;63094;-24
2022/10/30 11:45:39;;;;;;;9.00;2.20;;;;;;;13.96;60.83;98940.27;102148;1300;76546;-24
2022/10/30 11:48:19;;;;;;;2.90;1.60;;;;;;;14.11;60.25;98944.13;102095;1302;76807;-24
2022/10/30 11:50:47;;;;;;;4.60;1.90;;;;;;;14.25;60.49;98944.50;102189;1302;73701;-24
2022/10/30 11:53:30;;;;;;;4.80;1.70;;;;;;;14.46;60.42;98948.41;102133;1303;62593;-24